createdAt,value
2018-12-30T00:28:42.392Z,7.5
2018-12-30T00:38:54.358Z,7.5
2018-12-30T00:49:39.857Z,7.4
2018-12-30T00:59:50.883Z,7.4
2018-12-30T01:10:02.322Z,7.4
2018-12-30T01:20:16.436Z,7.4
2018-12-30T01:30:29.685Z,7.3
2018-12-30T01:41:14.662Z,7.3
2018-12-30T01:51:32.757Z,7.3
2018-12-30T02:01:36.791Z,7.3
2018-12-30T02:12:23.642Z,7.3
2018-12-30T02:22:35.265Z,7.2
2018-12-30T02:32:49.363Z,7.2
2018-12-30T02:43:00.495Z,7.2
2018-12-30T02:53:45.490Z,7.2
2018-12-30T03:04:32.769Z,7.2
2018-12-30T03:15:17.767Z,7.2
2018-12-30T03:25:31.170Z,7.2
2018-12-30T03:35:45.205Z,7.2
2018-12-30T03:45:58.881Z,7.1
2018-12-30T03:56:12.957Z,7.1
2018-12-30T04:07:00.439Z,7.0
2018-12-30T04:17:49.091Z,7.1
2018-12-30T04:29:12.445Z,7.1
2018-12-30T04:39:58.764Z,7.1
2018-12-30T04:50:48.713Z,7.1
2018-12-30T05:01:37.238Z,7.0
2018-12-30T05:12:25.266Z,6.9
2018-12-30T05:22:59.956Z,6.9
2018-12-30T05:33:15.692Z,6.8
2018-12-30T05:44:08.233Z,6.7
2018-12-30T05:54:58.361Z,6.5
2018-12-30T06:06:02.223Z,6.5
2018-12-30T06:17:00.227Z,6.4
2018-12-30T06:27:47.925Z,6.4
2018-12-30T06:39:15.066Z,6.4
2018-12-30T06:50:08.010Z,6.4
2018-12-30T07:00:57.730Z,6.4
2018-12-30T07:11:47.514Z,6.4
2018-12-30T07:22:01.887Z,6.4
2018-12-30T07:32:20.250Z,6.4
2018-12-30T07:42:36.822Z,6.4
2018-12-30T07:52:56.219Z,6.4
2018-12-30T08:03:47.226Z,6.5
2018-12-30T08:14:04.799Z,6.5
2018-12-30T08:24:20.808Z,6.6
2018-12-30T08:35:09.946Z,6.7
2018-12-30T08:45:26.121Z,6.7
2018-12-30T08:56:17.700Z,6.9
2018-12-30T09:06:34.937Z,6.9
2018-12-30T09:16:52.375Z,7.0
2018-12-30T09:27:07.792Z,7.1
2018-12-30T09:37:24.615Z,7.1
2018-12-30T09:48:11.712Z,7.3
2018-12-30T09:59:31.974Z,7.5
2018-12-30T10:09:45.450Z,7.5
2018-12-30T10:20:11.851Z,7.7
2018-12-30T10:30:26.666Z,7.7
2018-12-30T10:40:37.510Z,7.9
2018-12-30T10:50:51.422Z,8.0
2018-12-30T11:01:05.563Z,8.1
2018-12-30T11:11:19.579Z,8.3
2018-12-30T11:21:32.709Z,8.5
2018-12-30T11:31:44.252Z,8.7
2018-12-30T11:41:58.421Z,8.8
2018-12-30T11:52:15.919Z,8.9
2018-12-30T12:02:29.700Z,8.9
2018-12-30T12:12:48.642Z,9.0
2018-12-30T12:22:54.590Z,9.0
2018-12-30T12:33:08.785Z,9.0
2018-12-30T12:43:22.784Z,9.0
2018-12-30T12:53:37.143Z,8.9
2018-12-30T13:04:22.680Z,8.9
2018-12-30T13:14:35.915Z,8.9
2018-12-30T13:24:49.393Z,8.9
2018-12-30T13:35:03.240Z,8.9
2018-12-30T13:45:19.531Z,8.9
2018-12-30T13:55:32.903Z,8.8
2018-12-30T14:05:47.114Z,8.8
2018-12-30T14:16:06.065Z,8.8
2018-12-30T14:26:22.599Z,8.7
2018-12-30T14:36:41.601Z,8.7
2018-12-30T14:46:58.288Z,8.7
2018-12-30T14:57:12.284Z,8.6
2018-12-30T15:07:30.557Z,8.5
2018-12-30T15:17:49.901Z,8.4
2018-12-30T15:28:35.137Z,8.3
2018-12-30T15:38:48.390Z,8.3
2018-12-30T15:49:02.494Z,8.2
2018-12-30T15:59:15.945Z,8.1
2018-12-30T19:16:55.374Z,7.6
2018-12-30T19:32:39.869Z,7.5
2018-12-30T22:13:56.523Z,7.8
2018-12-30T22:24:10.779Z,7.8
2018-12-30T22:34:25.045Z,7.8
2018-12-30T22:44:39.223Z,7.8
2018-12-30T22:54:53.339Z,7.8
2018-12-30T23:05:40.934Z,7.8
2018-12-30T23:15:54.275Z,7.8
2018-12-30T23:26:08.417Z,7.8
2018-12-30T23:36:21.637Z,7.8
2018-12-30T23:46:45.904Z,7.9
2018-12-30T23:56:59.195Z,7.9
